Strathmore, CA

8:14 AM PDT on October 23, 2014 (GMT -0700)
Plainview | Change Station
CLOSE
Current Station
Personal Weather Station
Location: Strathmore, CA
Elevation: 354 ft
Nearby Weather Stations

Elev 354 ft 36.14 °N, 119.14 °W | Updated 20 seconds ago

Clear
Clear
52.2 °F
Feels Like 52.2 °F
N
0.0
Wind Variable Wind from ESE
Gusts 0.0 mph

Today
High -- | Low -- °F
--% Chance of Precip.
Yesterday
High -- | Low -- °F
Precip. -- in
7:10 AM 6:10 PM
Waning Crescent, 0% visible
Pressure 30.05 in
Visibility 10.0 miles
Clouds Clear
Dew Point 48 °F
Humidity 85%
Rainfall 0.00 in
Snow Depth Not available.
UV 0.0 out of 12
Pollen 2.60 out of 12
Ozone Good
PM2.5 Good
Flu Activity Sporadic
METAR KPTV 231455Z 10003KT 10SM CLR 12/06 A3005 RMK AO1 52010

More Conditions Fewer Conditions

Pressure 30.05 in
Visibility 10.0 miles
Clouds Clear
Dew Point 48 °F
Humidity 85%
Rainfall 0.00 in
Snow Depth Not available.
UV 0.0 out of 12
Pollen 2.60 out of 12
Ozone Good
PM2.5 Good
Flu Activity Sporadic
METAR KPTV 231455Z 10003KT 10SM CLR 12/06 A3005 RMK AO1 52010

More Conditions Fewer Conditions

10-Day Weather Forecast

Almanac

Astronomy

Oct. 23, 2014 Rise Set
Actual Time 7:10 AM PDT 6:10 PM PDT
Civil Twilight 6:44 AM PDT 6:36 PM PDT
Nautical Twilight 6:14 AM PDT 7:06 PM PDT
Astronomical Twilight 5:44 AM PDT 7:35 PM PDT
Moon 6:55 AM PDT 6:14 PM PDT
Length of Visible Light 11h 51m
Length of Day
10h 59m
Tomorrow will be 2m 7s shorter.
Waning Crescent, 0% of the Moon is Illuminated
Today
Waning Crescent
Oct 23
New
Oct 30
First Quarter
Nov 6
Full
Nov 14
Last Quarter

Today's Extremes

State Highs State Lows

Community

WunderPhotos

Upload Photos

1,764,280 photos uploaded!

Nearby

Air Quality

  Air Quality AQ Index Pollutant
Yesterday Good
OZONE
Yesterday Good
PM2.5
Current Good
PM2.5
Current Good
OZONE
Thursday Moderate
PM10
Friday Moderate
PM10
Saturday Moderate
PM10
Sunday Moderate
PM10
Monday Moderate
PM10

Snow Depth

Station Depth Elevation
Virginia Lakes Ridge 0 in 9200 ft
Leavitt Lake 1 in 9400 ft
Sonora Pass 0 in 8800 ft
Leavitt Meadows 1 in 7200 ft
Summit Meadow 1 in 9122 ft

Earthquake Activity

City Distance Mag. Time & Date
Solvang, California 135 miles 2.6 5:35 PM PDT
2014-10-22
Kettleman City, California 45 miles 2.5 9:08 AM PDT
2014-10-22
Mammoth Lakes, California 93 miles 3.0 11:10 PM PDT
2014-10-20
Minimum magnitude displayed is 2.5.

Coastal Water Temperatures

Place Temperature
No Stations Reporting

Nearby Weather Stations